createdAt,value
2017-11-15T00:00:31.854Z,49.88
2017-11-15T00:01:34.410Z,55.33
2017-11-15T00:02:37.334Z,51.25
2017-11-15T00:03:40.671Z,52.30
2017-11-15T00:04:43.144Z,54.25
2017-11-15T00:05:45.729Z,54.25
2017-11-15T00:06:49.068Z,45.63
2017-11-15T00:07:51.696Z,49.05
2017-11-15T00:08:54.219Z,55.15
2017-11-15T00:09:56.857Z,47.70
2017-11-15T00:11:00.369Z,49.80
2017-11-15T00:12:02.974Z,55.75
2017-11-15T00:13:05.470Z,53.15
2017-11-15T00:14:08.948Z,57.97
2017-11-15T00:15:11.794Z,55.95
2017-11-15T00:16:14.394Z,51.10
2017-11-15T00:17:17.673Z,53.97
2017-11-15T00:18:21.133Z,52.85
2017-11-15T00:19:23.618Z,56.95
2017-11-15T00:20:27.096Z,50.80
2017-11-15T00:21:29.633Z,56.40
2017-11-15T00:22:37.116Z,61.28
2017-11-15T00:23:39.621Z,59.58
2017-11-15T00:24:42.377Z,54.60
2017-11-15T00:25:44.836Z,57.42
2017-11-15T00:26:47.409Z,56.60
2017-11-15T00:27:49.885Z,65.85
2017-11-15T00:28:53.349Z,60.30
2017-11-15T00:29:55.850Z,62.85
2017-11-15T00:30:59.890Z,54.55
2017-11-15T00:32:02.374Z,50.17
2017-11-15T00:33:04.961Z,56.50
2017-11-15T00:34:08.223Z,56.67
2017-11-15T00:35:10.901Z,60.28
2017-11-15T00:36:13.382Z,52.58
2017-11-15T00:37:17.469Z,56.72
2017-11-15T00:38:19.969Z,58.45
2017-11-15T00:39:23.535Z,62.53
2017-11-15T00:40:26.110Z,62.25
2017-11-15T00:41:29.361Z,64.10
2017-11-15T00:42:31.874Z,65.87
2017-11-15T00:43:35.315Z,64.07
2017-11-15T00:44:37.816Z,58.67
2017-11-15T00:45:41.885Z,56.17
2017-11-15T00:46:44.433Z,61.22
2017-11-15T00:47:47.228Z,49.58
2017-11-15T00:48:49.945Z,56.97
2017-11-15T00:49:53.193Z,54.03
2017-11-15T00:50:55.693Z,56.58
2017-11-15T00:51:59.130Z,56.55
2017-11-15T00:53:01.606Z,51.25
2017-11-15T00:54:04.209Z,55.33
2017-11-15T00:55:07.442Z,66.43
2017-11-15T00:56:10.117Z,63.35
2017-11-15T00:57:13.452Z,62.35
2017-11-15T00:58:16.685Z,52.30
2017-11-15T00:59:19.188Z,57.30
2017-11-15T01:00:22.635Z,50.92
2017-11-15T01:01:25.121Z,67.80
2017-11-15T01:02:27.681Z,65.55
2017-11-15T01:03:30.143Z,52.25
2017-11-15T01:04:32.697Z,57.08
2017-11-15T01:05:35.204Z,57.20
2017-11-15T01:06:38.666Z,71.10
2017-11-15T01:07:41.145Z,56.65
2017-11-15T01:08:43.692Z,62.30
2017-11-15T01:09:46.188Z,55.85
2017-11-15T01:10:49.618Z,58.53
2017-11-15T01:11:52.097Z,61.70
2017-11-15T01:12:54.665Z,54.47
2017-11-15T01:13:57.161Z,67.70
2017-11-15T01:14:59.700Z,60.25
2017-11-15T01:16:02.207Z,62.35
2017-11-15T01:17:05.645Z,61.95
2017-11-15T01:18:08.139Z,62.75
2017-11-15T01:19:12.535Z,61.97
2017-11-15T01:20:15.019Z,61.25
2017-11-15T01:21:18.514Z,63.65
2017-11-15T01:22:21.052Z,62.25
2017-11-15T01:23:23.529Z,61.70
2017-11-15T01:24:25.997Z,65.28
2017-11-15T01:25:30.085Z,58.67
2017-11-15T01:26:32.594Z,54.97
2017-11-15T01:27:36.103Z,60.42
2017-11-15T01:28:38.586Z,64.20
2017-11-15T01:29:41.070Z,60.50
2017-11-15T01:30:43.537Z,54.33
2017-11-15T01:31:46.097Z,57.50
2017-11-15T01:32:48.611Z,63.13
2017-11-15T01:33:52.054Z,57.50
2017-11-15T01:34:54.553Z,63.87
2017-11-15T01:35:58.001Z,68.10
2017-11-15T01:37:00.469Z,60.70
2017-11-15T01:38:03.049Z,56.37
2017-11-15T01:39:05.542Z,60.20
2017-11-15T01:40:08.061Z,60.65
2017-11-15T01:41:10.982Z,55.58
2017-11-15T01:42:14.319Z,61.45
2017-11-15T01:43:16.793Z,51.03
2017-11-15T01:44:19.361Z,67.45
2017-11-15T01:45:21.835Z,68.85
2017-11-15T01:46:24.510Z,56.92
2017-11-15T01:47:27.745Z,65.22
2017-11-15T01:48:30.351Z,63.30
2017-11-15T01:49:32.830Z,61.08
2017-11-15T01:50:35.388Z,58.58
2017-11-15T01:51:38.828Z,60.08
2017-11-15T01:52:41.317Z,58.08
2017-11-15T01:53:43.811Z,58.17
2017-11-15T01:54:47.288Z,64.57
2017-11-15T01:55:49.763Z,57.08
2017-11-15T01:56:53.867Z,67.87
2017-11-15T01:57:57.116Z,56.17
2017-11-15T01:58:59.863Z,64.37
2017-11-15T02:00:02.390Z,65.72
2017-11-15T02:01:13.859Z,56.55
2017-11-15T02:02:16.428Z,58.05
2017-11-15T02:03:19.106Z,60.53
2017-11-15T02:04:21.578Z,60.88
2017-11-15T02:05:24.167Z,61.08
2017-11-15T02:06:27.487Z,72.95
2017-11-15T02:07:30.170Z,61.37
2017-11-15T02:08:32.637Z,62.38
2017-11-15T02:09:35.102Z,67.25
2017-11-15T02:10:37.572Z,69.18
2017-11-15T02:11:40.175Z,60.38
2017-11-15T02:12:43.410Z,65.15
2017-11-15T02:13:46.118Z,68.20
2017-11-15T02:14:49.362Z,60.78
2017-11-15T02:15:52.053Z,63.45
2017-11-15T02:16:55.439Z,62.15
2017-11-15T02:17:59.536Z,65.10
2017-11-15T02:19:02.071Z,62.00
2017-11-15T02:20:04.548Z,61.58
2017-11-15T02:21:07.037Z,66.12
2017-11-15T02:22:09.591Z,62.10
2017-11-15T02:23:13.623Z,64.15
2017-11-15T02:24:17.078Z,67.30
2017-11-15T02:25:20.339Z,59.17
2017-11-15T02:26:23.025Z,62.62
2017-11-15T02:27:25.605Z,57.13
2017-11-15T02:28:28.508Z,59.90
2017-11-15T02:29:31.752Z,66.87
2017-11-15T02:30:34.317Z,81.15
2017-11-15T02:31:36.799Z,67.40
2017-11-15T02:32:39.342Z,64.85
2017-11-15T02:33:42.022Z,64.78
2017-11-15T02:34:44.719Z,56.50
2017-11-15T02:35:47.205Z,78.00
2017-11-15T02:36:50.756Z,70.75
2017-11-15T02:37:53.239Z,62.72
2017-11-15T02:38:56.607Z,66.10
2017-11-15T02:39:59.100Z,64.15
2017-11-15T02:41:02.576Z,61.78
2017-11-15T02:42:06.585Z,66.50
2017-11-15T02:43:10.038Z,66.55
2017-11-15T02:44:12.551Z,58.05
2017-11-15T02:45:16.081Z,57.00
2017-11-15T02:46:18.590Z,64.72
2017-11-15T02:47:21.951Z,61.75
2017-11-15T02:48:24.431Z,62.42
2017-11-15T02:49:26.961Z,69.20
2017-11-15T02:50:30.501Z,72.32
2017-11-15T02:51:33.835Z,63.63
2017-11-15T02:52:36.358Z,58.80
2017-11-15T02:53:39.808Z,76.47
2017-11-15T02:54:42.319Z,64.62
2017-11-15T02:55:45.738Z,68.15
2017-11-15T02:56:48.227Z,71.30
2017-11-15T02:57:50.853Z,67.43
2017-11-15T02:58:53.336Z,60.47
2017-11-15T02:59:55.827Z,68.60
2017-11-15T03:00:58.332Z,61.85
2017-11-15T03:02:01.774Z,60.72
2017-11-15T03:03:04.269Z,67.47
2017-11-15T03:04:06.811Z,71.87
2017-11-15T03:05:09.332Z,61.15
2017-11-15T03:06:11.878Z,61.85
2017-11-15T03:07:15.129Z,70.20
2017-11-15T03:08:17.866Z,67.35
2017-11-15T03:09:20.342Z,64.95
2017-11-15T03:10:22.908Z,69.00
2017-11-15T03:11:25.441Z,64.55
2017-11-15T03:12:28.866Z,65.37
2017-11-15T03:13:31.335Z,72.65
2017-11-15T03:14:34.342Z,69.95
2017-11-15T03:15:36.811Z,66.03
2017-11-15T03:16:39.541Z,58.17
2017-11-15T03:17:42.143Z,62.13
2017-11-15T03:18:44.921Z,65.62
2017-11-15T03:19:47.391Z,63.22
2017-11-15T03:20:50.834Z,66.32
2017-11-15T03:21:53.531Z,72.43
2017-11-15T03:22:56.059Z,64.55
2017-11-15T03:23:58.872Z,79.25
2017-11-15T03:25:01.377Z,68.82
2017-11-15T03:26:04.197Z,63.85
2017-11-15T03:27:06.687Z,70.00
2017-11-15T03:28:09.246Z,70.10
2017-11-15T03:29:11.760Z,61.80
2017-11-15T03:30:14.575Z,64.05
2017-11-15T03:31:17.886Z,62.05
2017-11-15T03:32:21.487Z,58.83
2017-11-15T03:33:24.754Z,73.18
2017-11-15T03:34:28.317Z,64.97
2017-11-15T03:35:30.932Z,65.65
2017-11-15T03:36:33.645Z,61.13
2017-11-15T03:37:36.134Z,69.30
2017-11-15T03:38:38.703Z,59.97
2017-11-15T03:39:42.100Z,66.07
2017-11-15T03:40:46.167Z,72.43
2017-11-15T03:41:48.653Z,64.90
2017-11-15T03:42:52.160Z,66.57
2017-11-15T03:43:55.403Z,73.87
2017-11-15T03:44:58.094Z,67.05
2017-11-15T03:46:01.386Z,66.85
2017-11-15T03:47:04.021Z,63.72
2017-11-15T03:48:06.495Z,78.82
2017-11-15T03:49:09.029Z,69.55
2017-11-15T03:50:12.281Z,72.40
2017-11-15T03:51:15.621Z,72.22
2017-11-15T03:52:18.110Z,64.32
2017-11-15T03:53:20.657Z,64.15
2017-11-15T03:54:23.145Z,60.88
2017-11-15T03:55:25.715Z,61.28
2017-11-15T03:56:28.186Z,70.00
2017-11-15T03:57:31.625Z,72.57
2017-11-15T03:58:34.126Z,64.57
2017-11-15T03:59:36.668Z,55.85
2017-11-15T04:00:40.202Z,61.08
2017-11-15T04:01:43.615Z,69.90
2017-11-15T04:02:46.093Z,61.92
2017-11-15T04:03:48.893Z,63.63
2017-11-15T04:04:51.377Z,70.15
2017-11-15T04:05:53.981Z,76.90
2017-11-15T04:06:56.505Z,72.47
2017-11-15T04:07:59.277Z,71.93
2017-11-15T04:09:02.573Z,64.75
2017-11-15T04:10:05.205Z,69.62
2017-11-15T04:11:07.709Z,70.47
2017-11-15T04:12:11.206Z,70.12
2017-11-15T04:13:14.474Z,67.32
2017-11-15T04:14:18.058Z,73.28
2017-11-15T04:15:20.546Z,62.78
2017-11-15T04:16:23.984Z,67.62
2017-11-15T04:17:26.464Z,67.72
2017-11-15T04:18:29.056Z,73.87
2017-11-15T04:19:32.340Z,67.37
2017-11-15T04:20:35.895Z,62.78
2017-11-15T04:21:38.379Z,66.65
2017-11-15T04:22:41.774Z,75.97
2017-11-15T04:23:44.284Z,73.05
2017-11-15T04:24:46.880Z,72.25
2017-11-15T04:25:49.346Z,80.38
2017-11-15T04:26:51.916Z,73.82
2017-11-15T04:27:55.919Z,72.97
2017-11-15T04:28:58.516Z,69.68
2017-11-15T04:30:00.989Z,69.12
2017-11-15T04:31:04.421Z,71.75
2017-11-15T04:32:06.893Z,79.75
2017-11-15T04:33:09.468Z,68.40
2017-11-15T04:34:11.991Z,74.03
2017-11-15T04:35:14.869Z,72.57
2017-11-15T04:36:17.350Z,68.03
2017-11-15T04:37:20.135Z,67.15
2017-11-15T04:38:22.604Z,74.68
2017-11-15T04:39:25.351Z,73.47
2017-11-15T04:40:28.222Z,74.07
2017-11-15T04:41:31.381Z,78.75
2017-11-15T04:42:34.608Z,76.50
2017-11-15T04:43:37.413Z,75.53
2017-11-15T04:44:39.934Z,77.15
2017-11-15T04:45:43.046Z,68.70
2017-11-15T04:46:45.525Z,71.07
2017-11-15T04:47:48.075Z,66.85
2017-11-15T04:48:50.564Z,83.03
2017-11-15T04:49:54.002Z,69.60
2017-11-15T04:50:56.473Z,75.60
2017-11-15T04:51:59.033Z,70.90
2017-11-15T04:53:01.566Z,69.78
2017-11-15T04:54:04.948Z,69.32
2017-11-15T04:55:08.214Z,72.10
2017-11-15T04:56:11.014Z,73.05
2017-11-15T04:57:13.496Z,69.85
2017-11-15T04:58:16.320Z,66.10
2017-11-15T04:59:19.561Z,69.57
2017-11-15T05:00:22.264Z,66.43
2017-11-15T05:01:25.521Z,67.70
2017-11-15T05:02:28.204Z,63.00
2017-11-15T05:03:30.696Z,69.00
2017-11-15T05:04:34.152Z,63.83
2017-11-15T05:05:36.627Z,70.85
2017-11-15T05:06:41.029Z,65.00
2017-11-15T05:07:43.589Z,63.10
2017-11-15T05:08:46.420Z,58.35
2017-11-15T05:09:48.929Z,64.72
2017-11-15T05:10:51.708Z,63.20
2017-11-15T05:11:54.175Z,66.87
2017-11-15T05:12:56.728Z,69.57
2017-11-15T05:13:59.221Z,63.42
2017-11-15T05:15:01.796Z,66.78
2017-11-15T05:16:04.294Z,58.95
2017-11-15T05:17:07.138Z,66.72
2017-11-15T05:18:10.412Z,66.12
2017-11-15T05:19:13.070Z,65.43
2017-11-15T05:20:15.573Z,70.35
2017-11-15T05:21:18.993Z,68.57
2017-11-15T05:22:21.490Z,66.93
2017-11-15T05:23:24.048Z,69.40
2017-11-15T05:24:26.530Z,62.47
2017-11-15T05:25:29.106Z,61.60
2017-11-15T05:26:32.865Z,70.93
2017-11-15T05:27:35.637Z,65.12
2017-11-15T05:28:38.114Z,72.40
2017-11-15T05:29:40.677Z,67.80
2017-11-15T05:30:43.146Z,62.67
2017-11-15T05:31:46.668Z,67.47
2017-11-15T05:32:49.973Z,65.72
2017-11-15T05:33:52.606Z,71.78
2017-11-15T05:34:55.099Z,56.83
2017-11-15T05:35:57.947Z,63.15
2017-11-15T05:37:01.215Z,60.47
2017-11-15T05:38:03.861Z,55.33
2017-11-15T05:39:06.425Z,59.90
2017-11-15T05:40:09.189Z,59.28
2017-11-15T05:41:11.692Z,62.30
2017-11-15T05:42:14.262Z,52.15
2017-11-15T05:43:16.754Z,59.20
2017-11-15T05:44:19.272Z,58.83
2017-11-15T05:45:23.321Z,58.30
2017-11-15T05:46:26.781Z,63.85
2017-11-15T05:47:30.788Z,56.05
2017-11-15T05:48:34.125Z,50.75
2017-11-15T05:49:36.619Z,59.25
2017-11-15T05:50:39.306Z,53.87
2017-11-15T05:51:41.787Z,59.83
2017-11-15T05:52:45.273Z,54.35
2017-11-15T05:53:48.519Z,54.20
2017-11-15T05:54:51.163Z,52.33
2017-11-15T05:55:53.637Z,58.10
2017-11-15T05:56:56.215Z,57.40
2017-11-15T05:57:58.716Z,61.83
2017-11-15T05:59:02.188Z,54.20
2017-11-15T06:00:04.678Z,59.03
2017-11-15T06:01:08.118Z,55.55
2017-11-15T06:02:10.613Z,48.70
2017-11-15T06:03:13.205Z,52.85
2017-11-15T06:04:15.675Z,49.08
2017-11-15T06:05:18.216Z,49.60
2017-11-15T06:06:21.458Z,49.55
2017-11-15T06:07:24.112Z,49.03
2017-11-15T06:08:26.638Z,47.50
2017-11-15T06:09:30.178Z,54.78
2017-11-15T06:10:32.717Z,49.28
2017-11-15T06:11:35.473Z,45.12
2017-11-15T06:12:38.743Z,48.65
2017-11-15T06:13:41.396Z,51.30
2017-11-15T06:14:44.707Z,47.88
2017-11-15T06:15:47.376Z,47.30
2017-11-15T06:16:50.683Z,52.40
2017-11-15T06:17:54.909Z,43.80
2017-11-15T06:18:57.435Z,43.53
2017-11-15T06:20:00.245Z,43.90
2017-11-15T06:21:02.674Z,41.65
2017-11-15T06:22:05.579Z,41.50
2017-11-15T06:23:08.167Z,43.35
2017-11-15T06:24:10.913Z,44.63
2017-11-15T06:25:13.428Z,42.53
2017-11-15T06:26:16.395Z,40.72
2017-11-15T06:27:20.405Z,46.50
2017-11-15T06:28:23.057Z,40.33
2017-11-15T06:29:25.653Z,41.00
2017-11-15T06:30:28.204Z,37.50
2017-11-15T06:31:30.672Z,40.80
2017-11-15T06:32:34.154Z,42.50
2017-11-15T06:33:36.761Z,49.22
2017-11-15T06:34:39.350Z,40.70
2017-11-15T06:35:41.848Z,41.65
2017-11-15T06:36:44.424Z,44.22
2017-11-15T06:37:46.977Z,39.03
2017-11-15T06:38:49.858Z,45.05
2017-11-15T06:39:52.329Z,43.35
2017-11-15T06:40:56.606Z,42.22
2017-11-15T06:41:59.121Z,41.53
2017-11-15T06:43:02.575Z,40.88
2017-11-15T06:44:05.047Z,41.08
2017-11-15T06:45:07.602Z,39.72
2017-11-15T06:46:10.068Z,38.53
2017-11-15T06:47:12.680Z,35.90
2017-11-15T06:48:15.191Z,38.80
2017-11-15T06:49:18.090Z,39.42
2017-11-15T06:50:22.077Z,44.83
2017-11-15T06:51:24.856Z,38.30
2017-11-15T06:52:27.360Z,35.50
2017-11-15T06:53:30.821Z,35.95
2017-11-15T06:54:34.050Z,37.85
2017-11-15T06:55:36.761Z,36.85
2017-11-15T06:56:39.253Z,36.40
2017-11-15T06:57:42.701Z,38.65
2017-11-15T06:58:46.709Z,38.45
2017-11-15T06:59:49.289Z,39.40
2017-11-15T07:00:53.276Z,42.25
2017-11-15T07:01:55.855Z,42.65
2017-11-15T07:02:58.364Z,37.67
2017-11-15T07:04:00.862Z,40.83
2017-11-15T07:05:03.342Z,38.58
2017-11-15T07:06:05.939Z,41.92
2017-11-15T07:07:09.184Z,42.50
2017-11-15T07:08:11.845Z,37.60
2017-11-15T07:09:14.404Z,40.00
2017-11-15T07:10:17.294Z,36.60
2017-11-15T07:11:19.782Z,34.72
2017-11-15T07:12:24.093Z,35.17
2017-11-15T07:13:26.570Z,36.58
2017-11-15T07:14:30.010Z,35.85
2017-11-15T07:15:32.505Z,36.63
2017-11-15T07:16:36.577Z,37.00
2017-11-15T07:17:39.058Z,39.05
2017-11-15T07:18:41.606Z,38.83
2017-11-15T07:19:44.137Z,35.67
2017-11-15T07:20:47.568Z,43.55
2017-11-15T07:21:50.086Z,40.78
2017-11-15T07:22:53.547Z,39.83
2017-11-15T07:23:56.016Z,41.30
2017-11-15T07:24:58.542Z,41.67
2017-11-15T07:26:01.042Z,42.00
2017-11-15T07:27:05.160Z,40.65
2017-11-15T07:28:07.690Z,49.50
2017-11-15T07:29:10.480Z,43.28
2017-11-15T07:30:14.938Z,40.03
2017-11-15T07:31:17.683Z,40.97
2017-11-15T07:32:20.953Z,38.08
2017-11-15T07:33:24.310Z,40.08
2017-11-15T07:34:27.028Z,44.65
2017-11-15T07:35:30.761Z,38.40
2017-11-15T07:36:33.268Z,47.97
2017-11-15T07:37:35.813Z,42.53
2017-11-15T07:38:38.338Z,37.92
2017-11-15T07:39:40.840Z,41.60
2017-11-15T07:40:43.318Z,36.88
2017-11-15T07:41:45.869Z,40.10
2017-11-15T07:42:48.353Z,42.95
2017-11-15T07:43:50.921Z,41.40
2017-11-15T07:44:54.173Z,42.55
2017-11-15T07:45:56.870Z,39.88
2017-11-15T07:46:59.346Z,40.88
2017-11-15T07:48:03.283Z,41.08
2017-11-15T07:49:05.801Z,35.72
2017-11-15T07:50:10.469Z,38.03
2017-11-15T07:51:13.159Z,37.38
2017-11-15T07:52:16.944Z,40.33
2017-11-15T07:53:19.443Z,40.22
2017-11-15T07:54:22.822Z,41.95
2017-11-15T07:55:25.419Z,40.25
2017-11-15T07:56:28.198Z,35.70
2017-11-15T07:57:30.690Z,39.08
2017-11-15T07:58:33.482Z,36.47
2017-11-15T07:59:36.118Z,35.00
2017-11-15T08:00:39.478Z,35.90
2017-11-15T08:01:41.945Z,38.03
2017-11-15T08:02:45.406Z,37.15
2017-11-15T08:03:47.914Z,37.30
2017-11-15T08:04:50.442Z,36.05
2017-11-15T08:05:52.970Z,35.22
2017-11-15T08:06:55.476Z,32.97
2017-11-15T08:07:57.964Z,38.10
2017-11-15T08:09:01.695Z,36.38
2017-11-15T08:10:04.178Z,34.33
2017-11-15T08:11:07.100Z,33.65
2017-11-15T08:12:09.580Z,32.63
2017-11-15T08:13:13.068Z,35.65
2017-11-15T08:14:16.353Z,36.53
2017-11-15T08:15:19.904Z,33.55
2017-11-15T08:16:22.403Z,35.47
2017-11-15T08:17:25.872Z,34.15
2017-11-15T08:18:28.422Z,37.33
2017-11-15T08:19:31.185Z,29.00
2017-11-15T08:20:33.653Z,33.42
2017-11-15T08:21:36.245Z,34.65
2017-11-15T08:22:38.745Z,31.87
2017-11-15T08:23:41.254Z,36.17
2017-11-15T08:24:43.892Z,31.27
2017-11-15T08:25:47.222Z,31.60
2017-11-15T08:26:50.485Z,34.90
2017-11-15T08:27:53.233Z,31.10
2017-11-15T08:28:55.720Z,32.72
2017-11-15T08:29:58.518Z,30.45
2017-11-15T08:31:01.010Z,31.70
2017-11-15T08:32:04.856Z,32.08
2017-11-15T08:33:07.463Z,35.25
2017-11-15T08:34:11.025Z,40.15
2017-11-15T08:35:13.623Z,30.98
2017-11-15T08:36:17.015Z,34.70
2017-11-15T08:37:20.875Z,30.85
2017-11-15T08:38:23.835Z,37.50
2017-11-15T08:39:26.343Z,34.28
2017-11-15T08:40:28.882Z,33.28
2017-11-15T08:41:31.418Z,31.65
2017-11-15T08:42:34.382Z,32.30
2017-11-15T08:43:37.823Z,28.75
2017-11-15T08:44:40.543Z,32.50
2017-11-15T08:45:43.623Z,31.17
2017-11-15T08:46:46.465Z,31.90
2017-11-15T08:47:49.371Z,35.10
2017-11-15T08:48:52.069Z,34.65
2017-11-15T08:49:54.742Z,34.35
2017-11-15T08:50:57.423Z,33.08
2017-11-15T08:51:59.926Z,29.27
2017-11-15T08:53:03.476Z,34.13
2017-11-15T08:54:06.364Z,36.90
2017-11-15T08:55:10.047Z,34.90
2017-11-15T08:56:12.565Z,35.35
2017-11-15T08:57:15.296Z,34.92
2017-11-15T08:58:17.878Z,35.22
2017-11-15T08:59:21.610Z,34.25
2017-11-15T09:00:24.086Z,39.17
2017-11-15T09:01:26.936Z,36.58
2017-11-15T09:02:29.472Z,35.63
2017-11-15T09:03:32.495Z,34.58
2017-11-15T09:04:35.122Z,36.33
2017-11-15T09:05:38.521Z,38.35
2017-11-15T09:06:42.041Z,33.10
2017-11-15T09:07:44.851Z,36.47
2017-11-15T09:08:47.364Z,33.53
2017-11-15T09:09:50.097Z,38.35
2017-11-15T09:10:52.598Z,33.65
2017-11-15T09:11:55.521Z,35.25
2017-11-15T09:12:58.534Z,36.90
2017-11-15T09:14:02.022Z,33.03
2017-11-15T09:15:05.282Z,32.90
2017-11-15T09:16:08.884Z,30.95
2017-11-15T09:17:12.169Z,32.70
2017-11-15T09:18:15.769Z,33.00
2017-11-15T09:19:19.028Z,31.90
2017-11-15T09:20:21.709Z,35.85
2017-11-15T09:21:24.227Z,33.65
2017-11-15T09:22:27.426Z,37.92
2017-11-15T09:23:29.932Z,36.78
2017-11-15T09:24:33.238Z,33.83
2017-11-15T09:25:35.941Z,35.70
2017-11-15T09:26:39.562Z,35.10
2017-11-15T09:27:42.755Z,36.28
2017-11-15T09:28:45.600Z,32.63
2017-11-15T09:29:48.099Z,35.50
2017-11-15T09:30:51.480Z,35.47
2017-11-15T09:31:54.270Z,31.50
2017-11-15T09:32:57.705Z,37.53
2017-11-15T09:34:00.425Z,31.60
2017-11-15T09:35:03.318Z,32.10
2017-11-15T09:36:05.858Z,35.15
2017-11-15T09:37:09.102Z,35.53
2017-11-15T09:38:12.814Z,32.45
2017-11-15T09:39:15.591Z,34.17
2017-11-15T09:40:18.864Z,33.13
2017-11-15T09:41:21.568Z,31.60
2017-11-15T09:42:24.841Z,34.85
2017-11-15T09:43:27.473Z,34.58
2017-11-15T09:44:29.970Z,31.27
2017-11-15T09:45:32.792Z,31.35
2017-11-15T09:46:35.312Z,31.00
2017-11-15T09:47:38.894Z,28.27
2017-11-15T09:48:41.373Z,32.78
2017-11-15T09:49:44.756Z,29.65
2017-11-15T09:50:48.038Z,35.30
2017-11-15T09:51:51.616Z,30.77
2017-11-15T09:52:54.108Z,31.40
2017-11-15T09:53:57.568Z,34.38
2017-11-15T09:55:00.061Z,31.85
2017-11-15T09:56:02.586Z,36.40
2017-11-15T09:57:05.097Z,31.52
2017-11-15T09:58:08.542Z,28.83
2017-11-15T09:59:11.028Z,31.23
2017-11-15T10:00:14.531Z,31.65
2017-11-15T10:01:17.812Z,30.83
2017-11-15T10:02:21.385Z,30.98
2017-11-15T10:03:23.874Z,28.10
2017-11-15T10:04:27.324Z,33.40
2017-11-15T10:05:31.319Z,31.55
2017-11-15T10:06:33.819Z,32.47
2017-11-15T10:07:37.127Z,32.25
2017-11-15T10:08:39.846Z,32.97
2017-11-15T10:09:43.114Z,31.52
2017-11-15T10:10:45.851Z,32.85
2017-11-15T10:11:48.353Z,28.00
2017-11-15T10:12:51.126Z,30.10
2017-11-15T10:13:53.653Z,29.63
2017-11-15T10:14:57.386Z,30.80
2017-11-15T10:15:59.879Z,31.77
2017-11-15T10:17:04.509Z,28.90
2017-11-15T10:18:07.021Z,29.98
2017-11-15T10:19:09.606Z,29.75
2017-11-15T10:20:12.116Z,30.27
2017-11-15T10:21:15.902Z,33.55
2017-11-15T10:22:19.166Z,30.67
2017-11-15T10:23:21.815Z,33.08
2017-11-15T10:24:24.317Z,30.73
2017-11-15T10:25:27.784Z,32.90
2017-11-15T10:26:30.254Z,32.47
2017-11-15T10:27:32.745Z,30.50
2017-11-15T10:28:35.237Z,30.67
2017-11-15T10:29:37.859Z,32.80
2017-11-15T10:30:40.327Z,28.75
2017-11-15T10:31:43.842Z,29.77
2017-11-15T10:32:46.324Z,32.95
2017-11-15T10:33:48.833Z,28.73
2017-11-15T10:34:51.331Z,29.45
2017-11-15T10:35:53.860Z,33.20
2017-11-15T10:36:56.357Z,29.60
2017-11-15T10:37:59.798Z,35.25
2017-11-15T10:39:02.310Z,31.02
2017-11-15T10:40:05.774Z,33.35
2017-11-15T10:41:08.267Z,31.05
2017-11-15T10:42:11.716Z,26.90
2017-11-15T10:43:15.823Z,30.60
2017-11-15T10:44:18.618Z,32.92
2017-11-15T10:45:21.887Z,31.40
2017-11-15T10:46:24.546Z,30.90
2017-11-15T10:47:27.034Z,34.30
2017-11-15T10:48:30.495Z,30.17
2017-11-15T10:49:33.056Z,33.53
2017-11-15T10:50:36.757Z,30.62
2017-11-15T10:51:39.250Z,32.97
2017-11-15T10:52:42.762Z,27.98
2017-11-15T10:53:45.262Z,30.20
2017-11-15T10:54:48.033Z,30.15
2017-11-15T10:55:50.526Z,31.65
2017-11-15T10:56:53.023Z,35.53
2017-11-15T10:57:56.796Z,31.77
2017-11-15T10:59:00.271Z,30.60
2017-11-15T11:00:02.791Z,30.65
2017-11-15T11:01:05.306Z,30.27
2017-11-15T11:02:07.811Z,33.22
2017-11-15T11:03:10.317Z,33.25
2017-11-15T11:04:12.837Z,29.33
2017-11-15T11:05:15.366Z,28.73
2017-11-15T11:06:17.904Z,28.17
2017-11-15T11:07:20.686Z,27.08
2017-11-15T11:08:23.186Z,34.60
2017-11-15T11:09:26.642Z,34.00
2017-11-15T11:10:29.150Z,37.05
2017-11-15T11:11:31.716Z,30.67
2017-11-15T11:12:35.016Z,32.63
2017-11-15T11:13:37.558Z,28.83
2017-11-15T11:14:40.863Z,28.62
2017-11-15T11:15:43.565Z,34.25
2017-11-15T11:16:46.257Z,29.27
2017-11-15T11:17:48.910Z,29.80
2017-11-15T11:18:51.445Z,28.55
2017-11-15T11:19:53.932Z,30.98
2017-11-15T11:20:56.416Z,32.05
2017-11-15T11:21:58.971Z,29.35
2017-11-15T11:23:01.498Z,31.15
2017-11-15T11:24:04.017Z,30.23
2017-11-15T11:25:06.492Z,28.95
2017-11-15T11:26:09.008Z,31.10
2017-11-15T11:27:12.308Z,32.28
2017-11-15T11:28:16.000Z,30.48
2017-11-15T11:29:18.530Z,30.05
2017-11-15T11:30:21.260Z,33.58
2017-11-15T11:31:23.780Z,28.85
2017-11-15T11:32:26.298Z,25.42
2017-11-15T11:33:28.794Z,30.95
2017-11-15T11:34:32.256Z,27.75
2017-11-15T11:35:34.737Z,28.08
2017-11-15T11:36:37.283Z,28.65
2017-11-15T11:37:40.629Z,28.10
2017-11-15T11:38:43.123Z,29.52
2017-11-15T11:39:45.598Z,25.23
2017-11-15T11:40:48.295Z,31.58
2017-11-15T11:41:51.564Z,28.42
2017-11-15T11:42:54.220Z,33.28
2017-11-15T11:43:56.716Z,28.85
2017-11-15T11:45:00.169Z,27.60
2017-11-15T11:46:02.680Z,29.83
2017-11-15T11:47:05.190Z,27.98
2017-11-15T11:48:07.684Z,29.05
2017-11-15T11:49:10.822Z,28.20
2017-11-15T11:50:13.322Z,28.87
2017-11-15T11:51:15.924Z,31.50
2017-11-15T11:52:18.437Z,27.77
2017-11-15T11:53:21.207Z,32.50
2017-11-15T11:54:24.786Z,25.80
2017-11-15T11:55:27.479Z,30.80
2017-11-15T11:56:30.006Z,27.83
2017-11-15T11:57:32.498Z,26.20
2017-11-15T11:58:34.997Z,27.83
2017-11-15T11:59:38.456Z,28.70
2017-11-15T12:00:40.965Z,29.37
2017-11-15T12:01:43.517Z,28.67
2017-11-15T12:02:46.780Z,30.83
2017-11-15T12:03:49.426Z,30.25
2017-11-15T12:04:51.926Z,25.77
2017-11-15T12:05:55.421Z,29.15
2017-11-15T12:06:59.596Z,27.73
2017-11-15T12:08:02.236Z,24.70
2017-11-15T12:09:04.787Z,32.38
2017-11-15T12:10:08.524Z,26.60
2017-11-15T12:11:11.052Z,29.60
2017-11-15T12:12:14.493Z,29.55
2017-11-15T12:13:17.027Z,24.40
2017-11-15T12:14:19.546Z,28.08
2017-11-15T12:15:22.812Z,23.98
2017-11-15T12:16:25.453Z,24.33
2017-11-15T12:17:27.936Z,26.23
2017-11-15T12:18:31.429Z,24.92
2017-11-15T12:19:34.702Z,24.48
2017-11-15T12:20:37.381Z,27.85
2017-11-15T12:21:39.921Z,21.27
2017-11-15T12:22:42.468Z,23.05
2017-11-15T12:23:44.993Z,24.70
2017-11-15T12:24:48.340Z,26.95
2017-11-15T12:25:50.845Z,21.92
2017-11-15T12:26:53.397Z,22.20
2017-11-15T12:27:56.010Z,25.15
2017-11-15T12:28:58.719Z,21.80
2017-11-15T12:30:01.388Z,25.30
2017-11-15T12:31:04.986Z,23.12
2017-11-15T12:32:07.490Z,23.12
2017-11-15T12:33:11.054Z,26.35
2017-11-15T12:34:13.789Z,26.90
2017-11-15T12:35:19.620Z,28.27
2017-11-15T12:36:22.108Z,23.50
2017-11-15T12:37:24.709Z,27.83
2017-11-15T12:38:28.037Z,25.17
2017-11-15T12:39:31.012Z,25.02
2017-11-15T12:40:33.546Z,26.00
2017-11-15T12:41:36.991Z,24.48
2017-11-15T12:42:39.496Z,26.95
2017-11-15T12:43:42.887Z,27.10
2017-11-15T12:44:46.139Z,27.52
2017-11-15T12:45:48.873Z,24.73
2017-11-15T12:46:52.610Z,22.50
2017-11-15T12:47:55.372Z,26.83
2017-11-15T12:48:57.875Z,27.65
2017-11-15T12:50:01.327Z,30.23
2017-11-15T12:51:03.826Z,32.17
2017-11-15T12:52:06.385Z,27.10
2017-11-15T12:53:09.661Z,29.50
2017-11-15T12:54:12.312Z,28.87
2017-11-15T12:55:14.929Z,27.92
2017-11-15T12:56:17.954Z,29.95
2017-11-15T12:57:20.452Z,30.60
2017-11-15T12:58:23.944Z,29.20
2017-11-15T12:59:27.917Z,33.13
2017-11-15T13:00:32.901Z,29.20
2017-11-15T13:01:35.436Z,28.85
2017-11-15T13:02:40.025Z,28.87
2017-11-15T13:03:44.954Z,31.23
2017-11-15T13:04:49.881Z,30.40
2017-11-15T13:05:53.175Z,34.50
2017-11-15T13:06:56.919Z,30.65
2017-11-15T13:07:59.427Z,27.62
2017-11-15T13:09:02.961Z,31.23
2017-11-15T13:10:06.565Z,26.73
2017-11-15T13:11:09.345Z,30.70
2017-11-15T13:12:12.459Z,31.80
2017-11-15T13:13:15.176Z,30.15
2017-11-15T13:14:18.002Z,26.25
2017-11-15T13:15:21.016Z,31.67
2017-11-15T13:16:23.510Z,31.85
2017-11-15T13:17:26.816Z,26.77
2017-11-15T13:18:29.425Z,31.27
2017-11-15T13:19:33.455Z,30.90
2017-11-15T13:20:38.238Z,31.83
2017-11-15T13:21:41.868Z,31.48
2017-11-15T13:22:44.896Z,34.20
2017-11-15T13:23:48.319Z,32.42
2017-11-15T13:24:50.836Z,33.97
2017-11-15T13:25:55.165Z,42.72
2017-11-15T13:26:59.195Z,25.88
2017-11-15T13:28:02.966Z,31.98
2017-11-15T13:29:05.463Z,27.80
2017-11-15T13:30:08.463Z,26.98